Time;durP1;ratioP1;P1;durP2;ratioP2;P2;SDS_P1;SDS_P2;PMS_P1;PMS_P2;Temp;Humidity;BMP_temperature;BMP_pressure;BME280_temperature;BME280_humidity;BME280_pressure;Samples;Min_cycle;Max_cycle;Signal;HPM_P1;HPM_P2
2024/01/13 00:04:07;;;;;;;;;;;12.60;99.90;;;;;;10481634;28;19928;-69
2024/01/13 00:09:10;;;;;;;;;;;12.20;99.90;;;;;;10481939;28;19931;-69
2024/01/13 00:14:13;;;;;;;;;;;12.80;99.90;;;;;;10478340;28;20133;-68
2024/01/13 00:19:15;;;;;;;;;;;12.40;99.90;;;;;;10481426;28;19924;-68
2024/01/13 00:24:16;;;;;;;;;;;12.30;99.90;;;;;;10479631;28;20426;-68
2024/01/13 00:29:20;;;;;;;;;;;13.00;99.90;;;;;;10487174;28;19948;-70
2024/01/13 00:34:21;;;;;;;;;;;12.90;99.90;;;;;;10487241;28;20657;-70
2024/01/13 00:39:24;;;;;;;;;;;13.00;99.90;;;;;;10487751;28;19928;-69
2024/01/13 00:44:27;;;;;;;;;;;13.20;99.90;;;;;;10483200;28;19978;-69
2024/01/13 00:49:28;;;;;;;;;;;13.30;99.90;;;;;;10491751;28;19934;-68
2024/01/13 00:54:30;;;;;;;;;;;13.30;99.90;;;;;;10492153;28;19939;-68
2024/01/13 00:59:33;;;;;;;;;;;13.30;99.90;;;;;;10489525;28;19927;-68
2024/01/13 01:04:35;;;;;;;;;;;12.90;99.90;;;;;;10492191;28;19934;-68
2024/01/13 01:09:37;;;;;;;;;;;12.60;99.90;;;;;;10497701;28;19960;-68
2024/01/13 01:14:40;;;;;;;;;;;11.20;99.90;;;;;;10487943;28;19997;-68
2024/01/13 01:19:42;;;;;;;;;;;11.00;99.90;;;;;;10482834;28;19931;-68
2024/01/13 01:24:44;;;;;;;;;;;10.20;99.90;;;;;;10490493;28;19931;-68
2024/01/13 01:29:47;;;;;;;;;;;10.40;99.90;;;;;;10491642;28;19928;-69
2024/01/13 01:34:49;;;;;;;;;;;9.80;99.90;;;;;;10491685;28;20650;-68
2024/01/13 01:39:50;;;;;;;;;;;10.70;99.90;;;;;;10493965;28;19924;-68
2024/01/13 01:44:54;;;;;;;;;;;9.70;99.90;;;;;;10485565;28;20292;-69
2024/01/13 01:49:56;;;;;;;;;;;9.90;99.90;;;;;;10493934;28;20028;-68
2024/01/13 01:54:58;;;;;;;;;;;10.00;99.90;;;;;;10497711;28;20333;-67
2024/01/13 02:00:01;;;;;;;;;;;10.90;99.90;;;;;;10496026;28;19967;-68
2024/01/13 02:05:04;;;;;;;;;;;10.70;99.90;;;;;;10488322;28;20513;-69
2024/01/13 02:10:06;;;;;;;;;;;10.80;99.90;;;;;;10489172;28;19924;-69
2024/01/13 02:15:11;;;;;;;;;;;11.50;99.90;;;;;;10494220;28;19927;-69
2024/01/13 02:20:13;;;;;;;;;;;11.30;99.90;;;;;;10490859;28;19920;-68
2024/01/13 02:25:17;;;;;;;;;;;11.20;99.90;;;;;;10490987;28;19929;-69
2024/01/13 02:30:19;;;;;;;;;;;11.50;99.90;;;;;;10488277;28;19924;-67
2024/01/13 02:35:21;;;;;;;;;;;11.90;99.90;;;;;;10484657;28;19931;-67
2024/01/13 02:40:24;;;;;;;;;;;11.90;99.90;;;;;;10498098;28;20435;-68
2024/01/13 02:45:26;;;;;;;;;;;11.30;99.90;;;;;;10482646;28;19962;-68
2024/01/13 02:50:28;;;;;;;;;;;11.70;99.90;;;;;;10485136;28;19926;-67
2024/01/13 02:55:31;;;;;;;;;;;10.70;99.90;;;;;;10488250;28;20272;-68
2024/01/13 03:00:33;;;;;;;;;;;10.80;99.90;;;;;;10490172;28;19935;-68
2024/01/13 03:05:35;;;;;;;;;;;10.40;99.90;;;;;;10500603;28;20029;-68
2024/01/13 03:10:38;;;;;;;;;;;8.40;99.90;;;;;;10489351;28;19924;-68
2024/01/13 03:15:40;;;;;;;;;;;9.00;99.90;;;;;;10488661;28;19931;-68
2024/01/13 03:20:41;;;;;;;;;;;10.70;99.90;;;;;;10481314;28;19935;-68
2024/01/13 03:25:45;;;;;;;;;;;9.10;99.90;;;;;;10481875;28;20082;-68
2024/01/13 03:30:47;;;;;;;;;;;8.30;99.90;;;;;;10484095;28;20391;-68
2024/01/13 03:35:49;;;;;;;;;;;9.30;99.90;;;;;;10486765;28;19927;-69
2024/01/13 03:40:52;;;;;;;;;;;9.40;99.90;;;;;;10486259;28;20051;-68
2024/01/13 03:45:54;;;;;;;;;;;9.20;99.90;;;;;;10482707;28;20421;-67
2024/01/13 03:50:56;;;;;;;;;;;8.30;99.90;;;;;;10483680;28;20304;-66
2024/01/13 03:55:59;;;;;;;;;;;8.20;99.90;;;;;;10483524;28;19928;-69
2024/01/13 04:15:33;;;;;;;0.20;0.20;;;7.80;99.90;;;;;;10564645;27;20240;-67
2024/01/13 04:20:35;;;;;;;0.20;0.20;;;9.40;99.90;;;;;;10579440;27;23281;-69
2024/01/13 04:25:37;;;;;;;0.10;0.10;;;9.70;99.90;;;;;;10580626;28;20213;-69
2024/01/13 04:30:40;;;;;;;0.10;0.10;;;9.80;99.90;;;;;;10583444;27;20063;-67
2024/01/13 04:35:43;;;;;;;0.15;0.15;;;9.30;99.90;;;;;;10577205;27;20039;-68
2024/01/13 04:40:47;;;;;;;0.10;0.10;;;8.10;99.90;;;;;;10577795;27;20685;-68
2024/01/13 04:45:50;;;;;;;0.10;0.10;;;7.90;99.90;;;;;;10576970;27;20477;-66
2024/01/13 04:50:52;;;;;;;0.15;0.15;;;7.00;99.90;;;;;;10578496;27;20085;-68
2024/01/13 04:55:56;;;;;;;0.20;0.20;;;7.00;99.90;;;;;;10577919;27;20055;-68
2024/01/13 05:01:00;;;;;;;0.20;0.20;;;7.60;99.90;;;;;;10572118;27;20046;-68
2024/01/13 05:06:02;;;;;;;0.20;0.20;;;7.90;99.90;;;;;;10577180;27;20117;-68
2024/01/13 05:11:04;;;;;;;0.10;0.10;;;8.10;99.90;;;;;;10574481;27;20514;-68
2024/01/13 05:16:08;;;;;;;0.10;0.10;;;7.40;99.90;;;;;;10574663;27;20058;-70
2024/01/13 05:21:10;;;;;;;0.20;0.20;;;7.60;99.90;;;;;;10573994;28;20043;-68
2024/01/13 05:26:12;;;;;;;0.28;0.28;;;7.40;99.90;;;;;;10549689;27;20051;-70
2024/01/13 05:31:16;;;;;;;0.20;0.20;;;6.70;99.90;;;;;;10544805;27;20085;-69
2024/01/13 05:36:18;;;;;;;0.20;0.20;;;7.00;99.90;;;;;;10541756;27;20048;-67
2024/01/13 05:41:20;;;;;;;0.17;0.17;;;6.60;99.90;;;;;;10544412;28;20582;-69
2024/01/13 05:46:24;;;;;;;0.10;0.10;;;7.80;99.90;;;;;;10545896;28;20052;-69
2024/01/13 05:51:26;;;;;;;0.20;0.20;;;7.90;99.90;;;;;;10546692;27;20118;-69
2024/01/13 05:56:30;;;;;;;0.20;0.20;;;7.60;99.90;;;;;;10546067;27;20054;-69
2024/01/13 06:01:33;;;;;;;0.30;0.30;;;6.60;99.90;;;;;;10542596;28;20043;-69
2024/01/13 06:06:36;;;;;;;0.20;0.20;;;6.40;99.90;;;;;;10550516;27;20035;-69
2024/01/13 06:11:41;;;;;;;0.10;0.10;;;6.60;99.90;;;;;;10544155;27;20225;-70
2024/01/13 06:16:44;;;;;;;0.20;0.20;;;6.50;99.90;;;;;;10542982;27;20061;-70
2024/01/13 06:21:46;;;;;;;0.20;0.20;;;7.60;99.90;;;;;;10545279;28;20052;-70
2024/01/13 06:26:49;;;;;;;1.97;0.77;;;8.40;99.90;;;;;;10544010;28;20055;-70
2024/01/13 06:31:53;;;;;;;1.40;1.30;;;7.80;99.90;;;;;;10542264;27;20940;-68
2024/01/13 06:36:55;;;;;;;0.20;0.20;;;7.80;99.90;;;;;;10542829;28;20059;-70
2024/01/13 06:41:58;;;;;;;0.25;0.25;;;6.70;99.90;;;;;;10524409;28;20419;-69
2024/01/13 06:47:04;;;;;;;0.20;0.20;;;6.10;99.90;;;;;;10538486;27;20056;-68
2024/01/13 06:52:08;;;;;;;0.22;0.22;;;6.30;99.90;;;;;;10540974;27;20065;-69
2024/01/13 06:57:10;;;;;;;0.10;0.10;;;7.50;99.90;;;;;;10540049;27;20221;-69
2024/01/13 07:02:14;;;;;;;0.40;0.40;;;7.20;99.90;;;;;;10538110;28;20067;-69
2024/01/13 07:07:16;;;;;;;0.30;0.30;;;7.00;99.90;;;;;;10539830;27;20051;-70
2024/01/13 07:12:18;;;;;;;0.77;0.77;;;6.70;99.90;;;;;;10536028;28;20521;-69
2024/01/13 07:17:22;;;;;;;0.20;0.20;;;6.10;99.90;;;;;;10537495;27;20089;-70
2024/01/13 07:22:24;;;;;;;0.65;0.65;;;6.00;99.90;;;;;;10532730;28;23164;-69
2024/01/13 07:27:26;;;;;;;0.25;0.25;;;5.90;99.90;;;;;;10535589;27;20040;-68
2024/01/13 07:32:30;;;;;;;0.20;0.20;;;6.30;99.90;;;;;;10535979;27;20555;-70
2024/01/13 07:37:32;;;;;;;0.20;0.20;;;6.30;99.90;;;;;;10533799;27;20479;-69
2024/01/13 07:42:35;;;;;;;0.20;0.20;;;6.40;99.90;;;;;;10538470;27;20085;-69
2024/01/13 07:47:38;;;;;;;0.17;0.17;;;6.40;99.90;;;;;;10532620;28;20056;-67
2024/01/13 07:52:40;;;;;;;0.93;0.93;;;6.50;99.90;;;;;;10533593;28;20048;-68
2024/01/13 07:57:42;;;;;;;0.25;0.25;;;5.60;99.90;;;;;;10534267;27;20056;-69
2024/01/13 08:02:45;;;;;;;0.75;0.75;;;6.00;99.90;;;;;;10536940;28;20158;-69
2024/01/13 08:07:47;;;;;;;;;;;6.50;99.90;;;;;;10539471;28;20068;-69
2024/01/13 08:12:53;;;;;;;0.20;0.20;;;5.70;99.90;;;;;;10535834;28;19927;-69
2024/01/13 08:17:59;;;;;;;0.22;0.22;;;6.20;99.90;;;;;;10524517;28;20200;-67
2024/01/13 08:23:01;;;;;;;0.20;0.20;;;7.00;99.90;;;;;;10536557;28;20711;-68
2024/01/13 08:28:04;;;;;;;0.13;0.13;;;7.00;99.90;;;;;;10543594;28;20047;-67
2024/01/13 08:33:08;;;;;;;0.17;0.17;;;6.90;99.90;;;;;;10543929;28;20044;-69
2024/01/13 08:38:11;;;;;;;0.40;0.40;;;7.10;99.90;;;;;;10545684;28;20056;-68
2024/01/13 08:43:13;;;;;;;0.28;0.28;;;6.40;99.90;;;;;;10544213;28;20140;-68
2024/01/13 08:48:17;;;;;;;0.50;0.50;;;6.30;99.90;;;;;;10530546;28;20055;-67
2024/01/13 08:53:19;;;;;;;0.25;0.25;;;7.00;99.90;;;;;;10542788;28;20807;-67
2024/01/13 08:58:21;;;;;;;0.57;0.57;;;5.90;99.90;;;;;;10544728;28;20047;-69
2024/01/13 09:03:25;;;;;;;0.40;0.40;;;6.00;99.90;;;;;;10548426;28;20154;-68
2024/01/13 09:08:27;;;;;;;0.20;0.20;;;5.90;99.90;;;;;;10547433;27;23024;-70
2024/01/13 09:13:29;;;;;;;0.63;0.63;;;6.30;99.90;;;;;;10536599;27;20056;-67
2024/01/13 09:18:33;;;;;;;0.20;0.20;;;6.50;99.90;;;;;;10540780;28;20075;-69
2024/01/13 09:23:35;;;;;;;1.48;1.05;;;6.00;99.90;;;;;;10542942;27;20063;-68
2024/01/13 09:28:37;;;;;;;0.20;0.20;;;7.20;99.90;;;;;;10541789;28;20663;-69
2024/01/13 09:33:40;;;;;;;0.20;0.20;;;8.00;99.90;;;;;;10540932;27;20054;-69
2024/01/13 09:38:43;;;;;;;0.20;0.20;;;7.30;99.90;;;;;;10539149;27;20139;-69
2024/01/13 09:43:52;;;;;;;0.60;0.60;;;6.40;99.90;;;;;;10542495;28;20043;-69
2024/01/13 09:48:56;;;;;;;0.20;0.20;;;7.30;99.90;;;;;;10542548;27;20043;-69
2024/01/13 09:54:07;;;;;;;0.20;0.20;;;6.80;99.90;;;;;;10538913;28;20163;-68
2024/01/13 09:59:09;;;;;;;1.65;1.20;;;6.90;99.90;;;;;;10543600;28;20051;-69
2024/01/13 10:04:13;;;;;;;35.03;18.03;;;6.90;99.90;;;;;;10541590;27;20104;-70
2024/01/13 10:09:16;;;;;;;33.28;19.00;;;6.70;99.90;;;;;;10517514;28;20058;-69
2024/01/13 10:14:18;;;;;;;45.90;23.40;;;7.00;99.90;;;;;;10541360;27;20195;-69
2024/01/13 10:19:25;;;;;;;38.63;22.75;;;7.70;99.90;;;;;;10523620;28;20503;-69
2024/01/13 10:24:29;;;;;;;44.03;23.58;;;6.50;99.90;;;;;;10539143;28;20142;-69
2024/01/13 10:29:32;;;;;;;44.40;27.35;;;8.10;99.90;;;;;;10540127;27;20055;-69
2024/01/13 10:34:35;;;;;;;56.00;29.45;;;8.00;99.90;;;;;;10540890;27;20039;-71
2024/01/13 10:39:38;;;;;;;40.42;24.75;;;6.30;99.90;;;;;;10539842;27;20048;-70
2024/01/13 10:44:44;;;;;;;37.77;18.77;;;6.30;99.90;;;;;;10542356;28;20071;-70
2024/01/13 10:49:50;;;;;;;46.58;24.42;;;6.00;99.90;;;;;;10538999;28;20052;-70
2024/01/13 10:54:52;;;;;;;37.40;16.30;;;7.10;99.90;;;;;;10536632;27;20051;-71
2024/01/13 10:59:55;;;;;;;43.30;22.75;;;7.80;99.90;;;;;;10535243;28;20054;-70
2024/01/13 11:05:00;;;;;;;42.88;18.58;;;6.80;99.90;;;;;;10540415;27;20391;-70
2024/01/13 11:10:06;;;;;;;51.95;17.05;;;8.00;99.90;;;;;;10531924;28;20217;-70
2024/01/13 11:15:15;;;;;;;37.45;18.25;;;7.50;99.90;;;;;;10536067;27;20043;-70
2024/01/13 11:20:19;;;;;;;38.97;21.70;;;8.70;99.90;;;;;;10540448;27;20052;-70
2024/01/13 11:25:25;;;;;;;39.55;22.92;;;7.30;99.90;;;;;;10531705;28;20046;-69
2024/01/13 11:30:38;;;;;;;22.73;9.55;;;8.00;99.90;;;;;;10536135;27;20094;-69
2024/01/13 11:35:47;;;;;;;42.17;24.00;;;9.00;99.90;;;;;;10540606;27;20055;-70
2024/01/13 11:40:50;;;;;;;41.10;21.20;;;7.70;99.90;;;;;;10538979;28;20742;-70
2024/01/13 11:45:52;;;;;;;40.15;21.85;;;7.70;99.90;;;;;;10549535;27;20216;-69
2024/01/13 11:50:56;;;;;;;37.03;20.63;;;7.10;99.90;;;;;;10541212;28;20741;-68
2024/01/13 11:55:58;;;;;;;35.33;20.63;;;7.30;99.90;;;;;;10540105;27;20439;-69
2024/01/13 12:01:01;;;;;;;38.93;24.10;;;7.90;99.90;;;;;;10534282;28;20418;-70
2024/01/13 12:06:05;;;;;;;36.10;19.20;;;6.50;99.90;;;;;;10551904;27;20598;-69
2024/01/13 12:11:07;;;;;;;42.72;23.20;;;6.10;99.90;;;;;;10527812;28;20092;-69
2024/01/13 12:16:09;;;;;;;25.23;15.70;;;6.20;99.90;;;;;;10535326;28;20546;-70
2024/01/13 12:21:15;;;;;;;29.70;14.23;;;6.20;99.90;;;;;;10539317;28;20048;-70
2024/01/13 12:26:17;;;;;;;36.92;20.38;;;6.70;99.90;;;;;;10532453;28;20039;-69
2024/01/13 12:31:19;;;;;;;27.27;16.08;;;6.90;99.90;;;;;;10540183;28;20072;-70
2024/01/13 12:36:23;;;;;;;28.98;16.13;;;7.70;99.90;;;;;;10542543;28;20112;-69
2024/01/13 12:41:26;;;;;;;34.03;17.00;;;6.50;99.90;;;;;;10543692;28;20066;-71
2024/01/13 12:46:29;;;;;;;30.15;18.27;;;6.90;99.90;;;;;;10545335;27;20096;-70
2024/01/13 12:51:36;;;;;;;34.35;16.17;;;6.20;99.90;;;;;;10539111;27;20614;-70
2024/01/13 12:56:38;;;;;;;28.30;13.10;;;7.00;99.90;;;;;;10534409;27;20162;-70
2024/01/13 13:01:40;;;;;;;22.80;13.23;;;6.80;99.90;;;;;;10546625;28;20051;-70
2024/01/13 13:06:45;;;;;;;22.65;13.75;;;7.70;99.90;;;;;;10540969;27;20051;-70
2024/01/13 13:11:47;;;;;;;24.50;12.98;;;6.40;99.90;;;;;;10542120;27;20056;-71
2024/01/13 13:16:49;;;;;;;17.38;9.45;;;7.30;99.90;;;;;;10542171;27;20457;-70
2024/01/13 13:21:57;;;;;;;24.27;11.80;;;7.10;99.90;;;;;;10543155;27;20048;-70
2024/01/13 13:26:59;;;;;;;17.92;10.98;;;7.50;99.90;;;;;;10540985;27;20039;-70
2024/01/13 13:32:03;;;;;;;22.80;11.27;;;7.30;99.90;;;;;;10544011;27;20047;-70
2024/01/13 13:37:07;;;;;;;22.17;10.60;;;7.30;99.90;;;;;;10540770;27;20136;-71
2024/01/13 13:42:15;;;;;;;19.00;9.48;;;8.40;99.90;;;;;;10544635;27;20874;-71
2024/01/13 13:47:17;;;;;;;32.63;14.38;;;9.60;99.90;;;;;;10541267;27;20047;-74
2024/01/13 13:52:26;;;;;;;18.27;10.60;;;8.00;99.90;;;;;;10528411;28;20514;-70
2024/01/13 13:58:09;;;;;;;24.02;8.23;;;8.30;99.90;;;;;;10544745;27;20046;-71
2024/01/13 14:03:33;;;;;;;20.40;11.80;;;8.50;99.90;;;;;;10542683;27;20058;-71
2024/01/13 14:08:40;;;;;;;22.65;12.45;;;8.30;99.90;;;;;;10543724;27;20105;-69
2024/01/13 14:13:45;;;;;;;14.82;8.85;;;7.90;99.90;;;;;;10541562;28;20052;-69
2024/01/13 14:18:47;;;;;;;18.33;8.52;;;9.10;99.90;;;;;;10543358;27;20055;-70
2024/01/13 14:23:51;;;;;;;24.13;7.35;;;9.90;99.90;;;;;;10542209;28;20052;-71
2024/01/13 14:28:54;;;;;;;6.43;3.72;;;8.70;99.90;;;;;;10546671;27;20055;-70
2024/01/13 14:33:56;;;;;;;;;;;7.60;99.90;;;;;;10541040;28;20044;-69
2024/01/13 14:39:00;;;;;;;16.83;6.25;;;7.20;99.90;;;;;;10543312;27;19973;-69
2024/01/13 14:44:02;;;;;;;13.70;7.28;;;7.10;99.90;;;;;;10541401;27;20509;-71
2024/01/13 14:49:05;;;;;;;10.13;5.53;;;7.30;99.90;;;;;;10538921;27;20047;-70
2024/01/13 14:54:09;;;;;;;15.20;8.07;;;7.80;99.90;;;;;;10535205;27;20074;-70
2024/01/13 14:59:11;;;;;;;11.75;8.02;;;6.50;99.90;;;;;;10532489;28;20080;-70
2024/01/13 15:04:14;;;;;;;19.30;8.47;;;6.40;99.90;;;;;;10516298;28;20046;-73
2024/01/13 15:09:17;;;;;;;;;;;7.20;99.90;;;;;;10533837;27;20699;-69
2024/01/13 15:14:20;;;;;;;13.73;7.93;;;6.60;99.90;;;;;;10538774;27;20743;-70
2024/01/13 15:19:22;;;;;;;9.67;4.53;;;7.20;99.90;;;;;;10533737;27;20048;-70
2024/01/13 15:24:27;;;;;;;7.43;4.95;;;8.50;99.90;;;;;;10534795;28;20894;-69
2024/01/13 15:29:29;;;;;;;5.88;4.15;;;7.60;99.90;;;;;;10542829;27;21114;-68
2024/01/13 15:34:31;;;;;;;9.75;6.50;;;7.10;99.90;;;;;;10543067;27;20274;-69
2024/01/13 15:39:34;;;;;;;15.25;4.93;;;6.70;99.90;;;;;;10545314;27;20054;-69
2024/01/13 15:44:36;;;;;;;10.20;5.07;;;6.80;99.90;;;;;;10542356;28;20046;-70
2024/01/13 15:49:38;;;;;;;10.63;6.38;;;7.00;99.90;;;;;;10541629;27;20478;-69
2024/01/13 15:54:43;;;;;;;6.93;4.40;;;6.60;99.90;;;;;;10536205;28;20890;-67
2024/01/13 15:59:45;;;;;;;4.15;3.15;;;7.30;99.90;;;;;;10548234;28;20055;-70
2024/01/13 16:04:47;;;;;;;5.97;3.13;;;7.00;99.90;;;;;;10549009;27;20076;-63
2024/01/13 16:09:52;;;;;;;5.18;3.00;;;6.70;99.90;;;;;;10548406;28;20067;-62
2024/01/13 16:14:56;;;;;;;7.22;3.50;;;7.50;99.90;;;;;;10541147;28;20040;-62
2024/01/13 16:19:58;;;;;;;8.05;5.05;;;7.80;99.90;;;;;;10542785;28;20055;-63
2024/01/13 16:25:01;;;;;;;12.60;5.80;;;6.80;99.90;;;;;;10540463;28;20047;-62
2024/01/13 16:30:04;;;;;;;4.88;2.70;;;7.00;99.90;;;;;;10541530;28;20147;-62
2024/01/13 16:35:07;;;;;;;8.55;4.93;;;7.50;99.90;;;;;;10543415;28;20040;-61
2024/01/13 16:40:11;;;;;;;7.50;4.47;;;7.00;99.90;;;;;;10541636;28;20051;-62
2024/01/13 16:45:13;;;;;;;8.05;4.18;;;7.20;99.90;;;;;;10529170;28;20052;-62
2024/01/13 16:50:15;;;;;;;5.57;4.50;;;7.40;99.90;;;;;;10529337;28;20048;-62
2024/01/13 16:55:19;;;;;;;5.78;3.70;;;6.40;99.90;;;;;;10538371;28;20051;-64
2024/01/13 17:00:21;;;;;;;6.35;3.78;;;6.40;99.90;;;;;;10540320;28;20136;-63
2024/01/13 17:05:26;;;;;;;5.80;4.78;;;7.00;99.90;;;;;;10543010;28;20043;-62
2024/01/13 17:10:29;;;;;;;9.85;5.38;;;6.60;99.90;;;;;;10538414;28;20143;-62
2024/01/13 17:15:31;;;;;;;;;;;5.80;99.90;;;;;;10543993;28;20047;-63
2024/01/13 17:20:33;;;;;;;6.38;3.85;;;5.90;99.90;;;;;;10535731;27;20581;-63
2024/01/13 17:25:36;;;;;;;5.70;3.45;;;5.90;99.90;;;;;;10548012;27;20388;-61
2024/01/13 17:30:38;;;;;;;8.57;4.47;;;6.20;99.90;;;;;;10541272;27;20590;-62
2024/01/13 17:35:40;;;;;;;6.35;3.85;;;6.10;99.90;;;;;;10545310;27;20047;-62
2024/01/13 17:40:44;;;;;;;8.75;5.32;;;6.10;99.90;;;;;;10543320;28;20498;-62
2024/01/13 17:45:46;;;;;;;9.48;5.55;;;6.30;99.90;;;;;;10539270;27;20039;-62
2024/01/13 17:50:47;;;;;;;8.70;5.10;;;6.70;99.90;;;;;;10544291;27;20051;-62
2024/01/13 17:55:52;;;;;;;18.63;11.65;;;7.10;99.90;;;;;;10545368;28;20109;-62
2024/01/13 18:00:54;;;;;;;9.98;6.50;;;7.30;99.90;;;;;;10551511;28;20052;-64
2024/01/13 18:05:56;;;;;;;11.32;6.60;;;6.40;99.90;;;;;;10547480;27;20055;-63
2024/01/13 18:11:00;;;;;;;10.95;7.97;;;7.80;99.90;;;;;;10544982;28;21072;-62
2024/01/13 18:16:02;;;;;;;22.55;8.75;;;6.90;99.90;;;;;;10538756;27;20039;-61
2024/01/13 18:21:04;;;;;;;18.17;8.40;;;6.10;99.90;;;;;;10544929;27;20055;-62
2024/01/13 18:26:10;;;;;;;14.20;8.93;;;6.40;99.90;;;;;;10542101;27;20043;-61
2024/01/13 18:31:12;;;;;;;16.27;8.77;;;6.10;99.90;;;;;;10534723;28;20056;-62
2024/01/13 18:36:14;;;;;;;11.43;6.90;;;6.10;99.90;;;;;;10540634;27;20078;-62
2024/01/13 18:41:17;;;;;;;10.75;5.05;;;6.30;99.90;;;;;;10540701;27;20151;-63
2024/01/13 18:46:20;;;;;;;18.95;12.00;;;6.40;99.90;;;;;;10542571;28;20070;-61
2024/01/13 18:51:22;;;;;;;19.88;9.05;;;6.00;99.90;;;;;;10542274;27;20054;-62
2024/01/13 18:56:28;;;;;;;15.65;8.80;;;6.40;99.90;;;;;;10544381;27;20043;-62
2024/01/13 19:01:31;;;;;;;15.32;8.27;;;6.40;99.90;;;;;;10537381;28;20403;-62
2024/01/13 19:06:33;;;;;;;19.87;9.80;;;6.60;99.90;;;;;;10539175;28;20081;-63
2024/01/13 19:11:37;;;;;;;17.90;8.68;;;6.60;99.90;;;;;;10541197;28;20051;-64
2024/01/13 19:16:43;;;;;;;18.42;6.07;;;7.10;99.90;;;;;;10543516;27;20742;-62
2024/01/13 19:21:47;;;;;;;10.13;6.45;;;7.60;99.90;;;;;;10552267;28;20051;-61
2024/01/13 19:26:50;;;;;;;13.27;5.40;;;7.20;99.90;;;;;;10551491;28;20275;-63
2024/01/13 19:31:52;;;;;;;;;;;7.20;99.90;;;;;;10548690;28;20767;-64
2024/01/13 19:36:54;;;;;;;18.05;7.25;;;7.10;99.90;;;;;;10548417;28;20005;-65
2024/01/13 19:41:59;;;;;;;17.42;8.27;;;6.90;99.90;;;;;;10548081;27;20090;-64
2024/01/13 19:47:01;;;;;;;10.40;5.35;;;6.80;99.90;;;;;;10538147;28;20517;-64
2024/01/13 19:52:04;;;;;;;16.40;7.78;;;6.90;99.90;;;;;;10538571;27;20083;-64
2024/01/13 19:57:07;;;;;;;22.77;8.47;;;6.80;99.90;;;;;;10535820;27;20055;-63
2024/01/13 20:02:10;;;;;;;19.33;6.38;;;6.80;99.90;;;;;;10539327;28;20056;-63
2024/01/13 20:07:12;;;;;;;15.75;5.55;;;7.60;99.90;;;;;;10535266;28;20134;-64
2024/01/13 20:12:15;;;;;;;14.55;5.20;;;7.90;99.90;;;;;;10535771;28;20062;-65
2024/01/13 20:17:17;;;;;;;16.15;7.65;;;7.20;99.90;;;;;;10536128;28;20914;-65
2024/01/13 20:22:19;;;;;;;14.27;5.78;;;7.00;99.90;;;;;;10538535;28;20060;-65
2024/01/13 20:27:23;;;;;;;8.80;5.82;;;7.20;99.90;;;;;;10536502;28;20048;-63
2024/01/13 20:32:25;;;;;;;14.60;6.07;;;6.90;99.90;;;;;;10532786;28;20105;-64
2024/01/13 20:37:27;;;;;;;16.83;4.88;;;7.00;99.90;;;;;;10539435;28;21266;-64
2024/01/13 20:42:34;;;;;;;23.58;8.48;;;7.20;99.90;;;;;;10541386;28;20056;-64
2024/01/13 20:47:36;;;;;;;12.00;6.70;;;6.50;99.90;;;;;;10535827;28;20186;-64
2024/01/13 20:52:39;;;;;;;18.05;7.65;;;6.60;99.90;;;;;;10532425;28;20084;-63
2024/01/13 20:57:43;;;;;;;19.92;6.65;;;6.90;99.90;;;;;;10546593;27;20480;-63
2024/01/13 21:02:45;;;;;;;28.13;10.85;;;7.00;99.90;;;;;;10541027;27;20082;-63
2024/01/13 21:07:47;;;;;;;18.05;7.47;;;6.70;99.90;;;;;;10543520;27;20097;-64
2024/01/13 21:12:51;;;;;;;12.98;6.88;;;6.60;99.90;;;;;;10537516;28;20059;-63
2024/01/13 21:17:53;;;;;;;9.45;4.55;;;6.70;99.90;;;;;;10543765;27;20047;-64
2024/01/13 21:22:56;;;;;;;16.52;7.20;;;6.80;99.90;;;;;;10541329;27;20371;-64
2024/01/13 21:28:00;;;;;;;14.57;6.13;;;6.80;99.90;;;;;;10540884;27;20126;-64
2024/01/13 21:33:07;;;;;;;14.38;6.72;;;6.70;99.90;;;;;;10545490;27;20062;-64
2024/01/13 21:38:09;;;;;;;9.20;5.60;;;6.80;99.90;;;;;;10532734;28;20951;-63
2024/01/13 21:43:13;;;;;;;19.02;7.60;;;6.60;99.90;;;;;;10536385;27;20058;-63
2024/01/13 21:48:15;;;;;;;24.58;7.38;;;6.80;99.90;;;;;;10534041;27;20418;-65
2024/01/13 21:53:17;;;;;;;12.60;5.97;;;7.20;99.90;;;;;;10535309;28;20131;-64
2024/01/13 21:58:22;;;;;;;12.70;5.70;;;6.90;99.90;;;;;;10532879;27;20092;-64
2024/01/13 22:03:24;;;;;;;22.45;8.10;;;7.00;99.90;;;;;;10529866;28;20047;-64
2024/01/13 22:08:26;;;;;;;13.13;6.78;;;6.90;99.90;;;;;;10537528;27;20070;-65
2024/01/13 22:13:31;;;;;;;18.07;6.60;;;6.70;99.90;;;;;;10534268;27;20051;-63
2024/01/13 22:18:35;;;;;;;16.20;5.55;;;7.00;99.90;;;;;;10540072;27;20130;-63
2024/01/13 22:23:38;;;;;;;15.75;5.85;;;7.10;99.90;;;;;;10533959;27;20077;-64
2024/01/13 22:28:42;;;;;;;13.80;6.22;;;6.80;99.90;;;;;;10537295;27;20483;-63
2024/01/13 22:33:44;;;;;;;11.05;5.57;;;7.00;99.90;;;;;;10538429;27;20048;-63
2024/01/13 22:38:46;;;;;;;15.57;5.30;;;7.00;99.90;;;;;;10541825;27;20048;-63
2024/01/13 22:43:49;;;;;;;13.95;6.22;;;7.10;99.90;;;;;;10541867;27;20434;-63
2024/01/13 22:48:51;;;;;;;11.32;4.40;;;6.80;99.90;;;;;;10534877;27;20051;-64
2024/01/13 22:53:54;;;;;;;11.55;4.50;;;6.90;99.90;;;;;;10543877;27;20735;-64
2024/01/13 22:58:57;;;;;;;11.05;4.43;;;7.30;99.90;;;;;;10542796;27;20504;-64
2024/01/13 23:04:00;;;;;;;26.58;6.00;;;7.40;99.90;;;;;;10543106;27;20067;-64
2024/01/13 23:09:02;;;;;;;12.38;3.85;;;7.20;99.90;;;;;;10541089;27;20127;-64
2024/01/13 23:14:06;;;;;;;12.93;3.88;;;7.20;99.90;;;;;;10535539;28;20772;-63
2024/01/13 23:19:08;;;;;;;18.77;5.43;;;7.20;99.90;;;;;;10533523;27;20858;-63
2024/01/13 23:24:10;;;;;;;12.88;4.65;;;7.10;99.90;;;;;;10537311;27;20048;-63
2024/01/13 23:29:14;;;;;;;14.40;4.05;;;7.10;99.90;;;;;;10538257;27;20048;-64
2024/01/13 23:34:16;;;;;;;12.75;4.55;;;7.30;99.90;;;;;;10540757;28;20051;-64
2024/01/13 23:39:20;;;;;;;8.95;4.97;;;7.40;99.90;;;;;;10538262;28;20633;-63
2024/01/13 23:44:23;;;;;;;11.35;3.13;;;7.10;99.90;;;;;;10539547;27;20180;-64
2024/01/13 23:49:25;;;;;;;13.13;4.85;;;6.90;99.90;;;;;;10536376;28;20051;-65
2024/01/13 23:54:27;;;;;;;0.45;0.45;;;6.80;99.90;;;;;;10533666;28;20043;-65
2024/01/13 23:59:30;;;;;;;6.38;1.63;;;6.70;99.90;;;;;;10536510;27;20761;-65
